createdAt,value
2023-09-07T00:01:49.302Z,23.61
2023-09-07T00:06:52.540Z,23.40
2023-09-07T00:11:55.756Z,23.46
2023-09-07T00:17:00.460Z,23.61
2023-09-07T00:22:04.192Z,23.34
2023-09-07T00:27:09.071Z,23.40
2023-09-07T00:32:13.737Z,23.48
2023-09-07T00:37:17.035Z,23.49
2023-09-07T00:42:20.239Z,23.47
2023-09-07T00:47:25.174Z,23.41
2023-09-07T00:52:29.556Z,23.42
2023-09-07T00:57:32.990Z,23.46
2023-09-07T01:02:38.248Z,23.33
2023-09-07T01:07:48.580Z,23.27
2023-09-07T01:12:51.846Z,23.24
2023-09-07T01:18:07.032Z,23.22
2023-09-07T01:23:18.971Z,23.14
2023-09-07T01:28:23.226Z,22.82
2023-09-07T01:33:26.242Z,22.97
2023-09-07T01:38:31.221Z,22.88
2023-09-07T01:43:36.171Z,22.94
2023-09-07T01:48:39.445Z,22.84
2023-09-07T01:53:44.070Z,22.80
2023-09-07T01:58:47.325Z,22.85
2023-09-07T02:03:50.537Z,22.78
2023-09-07T02:08:55.174Z,22.84
2023-09-07T02:13:58.441Z,22.76
2023-09-07T02:19:06.521Z,22.69
2023-09-07T02:24:11.266Z,22.69
2023-09-07T02:29:14.639Z,22.76
2023-09-07T02:34:17.905Z,22.76
2023-09-07T02:39:22.548Z,22.63
2023-09-07T02:44:25.782Z,22.58
2023-09-07T02:49:28.985Z,22.47
2023-09-07T02:54:33.594Z,22.51
2023-09-07T02:59:36.854Z,22.61
2023-09-07T03:04:40.105Z,22.60
2023-09-07T03:09:45.884Z,22.52
2023-09-07T03:14:49.766Z,22.29
2023-09-07T03:19:52.980Z,22.63
2023-09-07T03:24:57.638Z,22.41
2023-09-07T03:30:01.076Z,22.21
2023-09-07T03:35:08.238Z,22.44
2023-09-07T03:40:13.318Z,22.41
2023-09-07T03:45:16.560Z,22.32
2023-09-07T03:50:19.897Z,22.54
2023-09-07T03:55:24.949Z,22.50
2023-09-07T04:00:28.157Z,22.52
2023-09-07T04:05:31.437Z,22.60
2023-09-07T04:10:39.415Z,22.62
2023-09-07T04:15:45.870Z,22.50
2023-09-07T04:20:50.088Z,22.46
2023-09-07T04:25:57.266Z,22.33
2023-09-07T04:31:01.263Z,22.33
2023-09-07T04:36:10.510Z,22.39
2023-09-07T04:41:16.110Z,22.35
2023-09-07T04:46:22.222Z,22.17
2023-09-07T04:51:26.963Z,22.09
2023-09-07T04:56:31.656Z,21.99
2023-09-07T05:01:34.942Z,21.86
2023-09-07T05:06:39.887Z,21.59
2023-09-07T05:11:44.562Z,21.76
2023-09-07T05:16:47.776Z,21.83
2023-09-07T05:21:51.289Z,21.89
2023-09-07T05:26:56.012Z,21.91
2023-09-07T05:32:01.179Z,21.89
2023-09-07T05:37:06.758Z,22.01
2023-09-07T05:42:11.416Z,22.12
2023-09-07T05:47:15.896Z,22.18
2023-09-07T05:52:19.436Z,22.15
2023-09-07T05:57:24.095Z,22.13
2023-09-07T06:02:27.490Z,22.05
2023-09-07T06:07:30.723Z,22.02
2023-09-07T06:12:35.668Z,22.02
2023-09-07T06:17:39.067Z,22.13
2023-09-07T06:22:42.533Z,21.96
2023-09-07T06:27:47.188Z,21.97
2023-09-07T06:32:52.573Z,22.08
2023-09-07T06:37:56.364Z,21.97
2023-09-07T06:43:01.811Z,22.02
2023-09-07T06:48:05.459Z,21.99
2023-09-07T06:53:09.563Z,22.02
2023-09-07T06:58:14.308Z,22.07
2023-09-07T07:03:17.615Z,22.08
2023-09-07T07:08:21.003Z,22.10
2023-09-07T07:13:25.669Z,22.22
2023-09-07T07:18:29.159Z,22.63
2023-09-07T07:23:33.383Z,22.75
2023-09-07T07:28:38.248Z,22.99
2023-09-07T07:33:41.456Z,23.12
2023-09-07T07:38:45.045Z,23.53
2023-09-07T07:43:49.800Z,23.35
2023-09-07T07:48:53.046Z,24.06
2023-09-07T07:53:57.635Z,25.23
2023-09-07T07:59:03.261Z,26.77
2023-09-07T08:04:07.079Z,27.11
2023-09-07T08:09:11.386Z,26.70
2023-09-07T08:14:16.071Z,26.87
2023-09-07T08:19:19.331Z,29.10
2023-09-07T08:24:22.648Z,29.41
2023-09-07T08:29:28.114Z,29.22
2023-09-07T08:34:32.689Z,30.34
2023-09-07T08:39:36.059Z,30.39
2023-09-07T08:44:47.821Z,31.45
2023-09-07T08:49:51.284Z,32.66
2023-09-07T08:54:55.357Z,32.74
2023-09-07T09:00:00.271Z,33.90
2023-09-07T09:05:03.990Z,32.50
2023-09-07T09:10:08.732Z,31.89
2023-09-07T09:15:16.256Z,31.21
2023-09-07T09:20:24.612Z,30.85
2023-09-07T09:25:28.717Z,31.28
2023-09-07T09:30:34.436Z,32.24
2023-09-07T09:35:37.878Z,32.93
2023-09-07T09:40:41.526Z,33.18
2023-09-07T09:45:47.345Z,34.82
2023-09-07T09:50:52.529Z,35.01
2023-09-07T09:55:56.831Z,34.76
2023-09-07T10:01:07.777Z,35.53
2023-09-07T10:06:12.342Z,34.14
2023-09-07T10:11:15.855Z,34.11
2023-09-07T10:16:21.322Z,34.68
2023-09-07T10:21:29.205Z,34.94
2023-09-07T10:26:32.582Z,34.35
2023-09-07T10:31:53.484Z,33.16
2023-09-07T10:36:59.965Z,32.40
2023-09-07T10:42:04.541Z,32.27
2023-09-07T10:47:09.639Z,31.42
2023-09-07T10:52:13.695Z,30.52
2023-09-07T10:57:23.318Z,29.89
2023-09-07T11:02:28.747Z,28.63
2023-09-07T11:07:33.030Z,28.57
2023-09-07T11:12:40.616Z,28.95
2023-09-07T11:17:48.163Z,28.80
2023-09-07T11:23:04.712Z,28.68
2023-09-07T11:28:10.265Z,28.97
2023-09-07T11:33:18.766Z,29.91
2023-09-07T11:38:22.199Z,32.03
2023-09-07T11:43:26.217Z,32.09
2023-09-07T11:48:31.220Z,32.63
2023-09-07T11:53:35.799Z,34.24
2023-09-07T11:58:39.960Z,35.18
2023-09-07T12:03:45.097Z,34.88
2023-09-07T12:09:02.790Z,35.44
2023-09-07T12:14:07.396Z,35.61
2023-09-07T12:19:12.499Z,34.35
2023-09-07T12:24:17.969Z,35.07
2023-09-07T12:29:22.468Z,34.99
2023-09-07T12:34:28.573Z,35.76
2023-09-07T12:39:34.017Z,36.14
2023-09-07T12:44:37.900Z,35.36
2023-09-07T12:49:43.375Z,33.98
2023-09-07T12:54:46.995Z,34.85
2023-09-07T12:59:51.550Z,35.58
2023-09-07T13:04:58.610Z,35.43
2023-09-07T13:10:04.123Z,35.82
2023-09-07T13:15:09.693Z,35.13
2023-09-07T13:20:15.833Z,33.97
2023-09-07T13:25:20.512Z,34.64
2023-09-07T13:30:25.602Z,34.21
2023-09-07T13:35:32.814Z,33.52
2023-09-07T13:40:36.935Z,33.20
2023-09-07T13:45:41.896Z,33.29
2023-09-07T13:50:46.788Z,32.77
2023-09-07T13:55:51.952Z,32.73
2023-09-07T14:00:55.315Z,32.21
2023-09-07T14:06:00.962Z,32.06
2023-09-07T14:11:04.334Z,31.69
2023-09-07T14:16:08.817Z,31.53
2023-09-07T14:21:13.622Z,31.80
2023-09-07T14:26:17.955Z,31.86
2023-09-07T14:31:21.250Z,31.95
2023-09-07T14:36:26.111Z,31.91
2023-09-07T14:41:31.192Z,31.57
2023-09-07T14:46:35.206Z,31.80
2023-09-07T14:51:39.873Z,31.86
2023-09-07T14:56:43.175Z,31.49
2023-09-07T15:01:54.837Z,31.76
2023-09-07T15:07:04.043Z,31.61
2023-09-07T15:12:12.881Z,31.36
2023-09-07T15:17:16.546Z,31.46
2023-09-07T15:22:22.167Z,31.34
2023-09-07T15:27:25.959Z,31.27
2023-09-07T15:32:30.226Z,30.62
2023-09-07T15:37:36.924Z,30.89
2023-09-07T15:42:40.204Z,30.84
2023-09-07T15:47:43.180Z,30.59
2023-09-07T15:52:48.950Z,30.43
2023-09-07T15:57:52.695Z,30.23
2023-09-07T16:02:57.073Z,29.99
2023-09-07T16:08:01.989Z,29.86
2023-09-07T16:13:05.524Z,29.63
2023-09-07T16:18:09.161Z,29.35
2023-09-07T16:23:14.305Z,29.26
2023-09-07T16:28:18.030Z,29.08
2023-09-07T16:33:22.932Z,29.10
2023-09-07T16:38:27.681Z,28.82
2023-09-07T16:43:30.957Z,28.69
2023-09-07T16:48:35.494Z,28.62
2023-09-07T16:53:40.559Z,28.47
2023-09-07T16:59:08.685Z,28.45
2023-09-07T17:04:08.016Z,28.37
2023-09-07T17:09:14.222Z,28.13
2023-09-07T17:14:17.995Z,28.13
2023-09-07T17:19:21.884Z,28.04
2023-09-07T17:24:26.739Z,27.89
2023-09-07T17:29:30.383Z,27.81
2023-09-07T17:34:35.909Z,27.69
2023-09-07T17:39:40.609Z,27.44
2023-09-07T17:44:44.062Z,27.37
2023-09-07T17:49:47.541Z,27.44
2023-09-07T17:54:54.013Z,27.41
2023-09-07T17:59:58.001Z,27.29
2023-09-07T18:05:01.497Z,27.08
2023-09-07T18:10:09.092Z,27.03
2023-09-07T18:15:12.814Z,27.01
2023-09-07T18:20:16.652Z,27.01
2023-09-07T18:25:21.761Z,26.95
2023-09-07T18:30:25.595Z,27.00
2023-09-07T18:35:28.981Z,26.73
2023-09-07T18:40:34.142Z,26.76
2023-09-07T18:45:37.640Z,26.82
2023-09-07T18:50:40.919Z,26.82
2023-09-07T18:55:45.600Z,26.86
2023-09-07T19:00:48.893Z,26.67
2023-09-07T19:05:52.911Z,26.60
2023-09-07T19:10:57.799Z,26.61
2023-09-07T19:16:01.451Z,26.58
2023-09-07T19:21:17.361Z,26.45
2023-09-07T19:26:30.338Z,26.50
2023-09-07T19:31:34.025Z,26.35
2023-09-07T19:36:38.257Z,26.17
2023-09-07T19:41:43.068Z,25.93
2023-09-07T19:46:46.430Z,25.73
2023-09-07T19:51:49.759Z,25.71
2023-09-07T19:56:55.204Z,25.62
2023-09-07T20:01:59.686Z,25.57
2023-09-07T20:07:04.662Z,25.53
2023-09-07T20:12:10.120Z,25.57
2023-09-07T20:17:13.503Z,25.17
2023-09-07T20:22:17.612Z,25.15
2023-09-07T20:27:22.311Z,25.09
2023-09-07T20:32:25.738Z,25.08
2023-09-07T20:37:29.845Z,25.04
2023-09-07T20:42:35.021Z,25.01
2023-09-07T20:47:38.306Z,24.87
2023-09-07T20:52:43.531Z,24.80
2023-09-07T20:57:50.686Z,24.71
2023-09-07T21:02:54.120Z,24.69
2023-09-07T21:07:57.970Z,24.60
2023-09-07T21:13:02.656Z,24.63
2023-09-07T21:18:06.612Z,24.60
2023-09-07T21:23:11.033Z,24.74
2023-09-07T21:28:16.418Z,24.81
2023-09-07T21:33:20.057Z,24.38
2023-09-07T21:38:23.298Z,24.40
2023-09-07T21:43:29.080Z,24.39
2023-09-07T21:48:33.416Z,24.22
2023-09-07T21:53:40.572Z,23.78
2023-09-07T21:58:45.275Z,23.64
2023-09-07T22:03:49.699Z,23.75
2023-09-07T22:08:53.552Z,24.06
2023-09-07T22:13:58.499Z,24.09
2023-09-07T22:19:01.990Z,24.20
2023-09-07T22:24:05.833Z,23.90
2023-09-07T22:29:11.028Z,23.90
2023-09-07T22:34:14.626Z,23.78
2023-09-07T22:39:18.748Z,23.84
2023-09-07T22:44:23.265Z,23.49
2023-09-07T22:49:26.898Z,23.81
2023-09-07T22:54:30.154Z,23.91
2023-09-07T22:59:34.880Z,24.01
2023-09-07T23:04:38.176Z,23.75
2023-09-07T23:09:43.469Z,23.65
2023-09-07T23:14:48.229Z,23.46
2023-09-07T23:19:51.596Z,23.33
2023-09-07T23:24:56.148Z,23.26
2023-09-07T23:30:01.359Z,23.54
2023-09-07T23:35:05.052Z,23.63
2023-09-07T23:40:10.537Z,23.57
2023-09-07T23:45:15.277Z,23.47
2023-09-07T23:50:19.114Z,23.46
2023-09-07T23:55:22.384Z,23.08
